createdAt,value
2022-08-05T00:01:36.316Z,6.50
2022-08-05T00:04:17.683Z,6.30
2022-08-05T00:06:47.056Z,6.30
2022-08-05T00:09:19.671Z,5.33
2022-08-05T00:11:49.597Z,6.13
2022-08-05T00:14:29.018Z,6.07
2022-08-05T00:16:57.760Z,5.90
2022-08-05T00:19:33.775Z,6.33
2022-08-05T00:22:11.235Z,9.57
2022-08-05T00:24:42.635Z,6.73
2022-08-05T00:27:14.070Z,5.90
2022-08-05T00:29:44.969Z,5.93
2022-08-05T00:32:15.517Z,5.70
2022-08-05T00:35:04.370Z,5.30
2022-08-05T00:37:50.824Z,5.00
2022-08-05T00:40:26.838Z,5.80
2022-08-05T00:42:57.845Z,6.17
2022-08-05T00:45:38.986Z,6.10
2022-08-05T00:48:13.747Z,5.87
2022-08-05T00:50:45.925Z,6.20
2022-08-05T00:53:59.858Z,5.30
2022-08-05T00:56:07.920Z,5.63
2022-08-05T00:58:36.205Z,5.57
2022-08-05T01:01:08.647Z,5.70
2022-08-05T01:03:37.524Z,6.10
2022-08-05T01:06:05.842Z,6.13
2022-08-05T01:08:43.446Z,5.50
2022-08-05T01:11:21.846Z,6.13
2022-08-05T01:14:08.969Z,5.87
2022-08-05T01:16:45.360Z,5.70
2022-08-05T01:19:30.430Z,5.17
2022-08-05T01:22:41.668Z,6.50
2022-08-05T01:25:40.220Z,5.40
2022-08-05T01:28:34.508Z,5.93
2022-08-05T01:31:08.693Z,6.43
2022-08-05T01:33:48.952Z,5.50
2022-08-05T01:36:21.470Z,6.00
2022-08-05T01:39:00.933Z,6.13
2022-08-05T01:41:34.032Z,6.00
2022-08-05T01:44:04.074Z,6.10
2022-08-05T01:46:43.051Z,5.90
2022-08-05T01:49:23.341Z,5.93
2022-08-05T01:51:55.890Z,6.40
2022-08-05T01:54:27.848Z,6.10
2022-08-05T01:58:10.810Z,5.60
2022-08-05T01:59:50.321Z,5.83
2022-08-05T02:02:26.281Z,6.20
2022-08-05T02:05:00.917Z,5.90
2022-08-05T02:07:32.173Z,6.47
2022-08-05T02:10:02.163Z,6.20
2022-08-05T02:12:38.374Z,6.40
2022-08-05T02:15:13.768Z,6.07
2022-08-05T02:18:28.766Z,6.10
2022-08-05T02:20:53.648Z,5.90
2022-08-05T02:23:33.718Z,6.50
2022-08-05T02:26:05.954Z,5.87
2022-08-05T02:28:41.863Z,5.97
2022-08-05T02:31:21.306Z,5.70
2022-08-05T02:33:57.394Z,4.43
2022-08-05T02:36:31.192Z,6.00
2022-08-05T02:39:02.800Z,6.50
2022-08-05T02:41:42.903Z,6.00
2022-08-05T02:44:25.352Z,5.33
2022-08-05T02:47:00.646Z,8.50
2022-08-05T02:49:36.915Z,5.90
2022-08-05T02:52:11.531Z,5.90
2022-08-05T02:54:50.584Z,5.80
2022-08-05T02:58:10.221Z,5.90
2022-08-05T03:00:10.390Z,5.60
2022-08-05T03:02:42.774Z,5.67
2022-08-05T03:05:12.766Z,5.73
2022-08-05T03:08:06.974Z,6.23
2022-08-05T03:10:30.798Z,5.90
2022-08-05T03:15:28.414Z,5.70
2022-08-05T03:17:59.467Z,7.00
2022-08-05T03:20:27.682Z,6.70
2022-08-05T03:22:57.610Z,6.53
2022-08-05T03:25:33.975Z,6.43
2022-08-05T03:28:18.467Z,6.70
2022-08-05T03:30:48.470Z,6.27
2022-08-05T03:33:18.005Z,7.40
2022-08-05T03:35:47.505Z,6.00
2022-08-05T03:38:15.984Z,6.53
2022-08-05T03:40:48.659Z,6.33
2022-08-05T03:44:09.535Z,6.20
2022-08-05T03:46:08.237Z,6.80
2022-08-05T03:48:37.823Z,6.33
2022-08-05T03:52:37.938Z,7.17
2022-08-05T03:55:52.466Z,6.37
2022-08-05T03:56:58.889Z,6.30
2022-08-05T03:59:46.578Z,6.53
2022-08-05T04:02:39.067Z,6.70
2022-08-05T04:05:10.315Z,7.00
2022-08-05T04:07:51.480Z,6.50
2022-08-05T04:10:30.962Z,7.17
2022-08-05T04:13:03.497Z,6.50
2022-08-05T04:15:33.013Z,6.80
2022-08-05T04:18:06.777Z,6.10
2022-08-05T04:20:37.405Z,6.60
2022-08-05T04:23:05.504Z,6.93
2022-08-05T04:25:56.428Z,6.30
2022-08-05T04:28:28.550Z,6.40
2022-08-05T04:31:00.972Z,6.33
2022-08-05T04:33:54.591Z,6.50
2022-08-05T04:36:45.558Z,7.00
2022-08-05T04:39:07.800Z,7.00
2022-08-05T04:41:36.837Z,6.67
2022-08-05T04:44:09.006Z,6.97
2022-08-05T04:46:38.315Z,5.83
2022-08-05T04:49:12.383Z,6.60
2022-08-05T04:51:44.639Z,6.70
2022-08-05T04:54:14.533Z,6.20
2022-08-05T04:56:42.505Z,6.37
2022-08-05T04:59:22.093Z,7.00
2022-08-05T05:02:07.417Z,6.80
2022-08-05T05:04:47.521Z,5.97
2022-08-05T05:07:18.303Z,6.33
2022-08-05T05:09:52.357Z,6.20
2022-08-05T05:12:22.265Z,6.13
2022-08-05T05:14:51.371Z,6.30
2022-08-05T05:17:24.353Z,6.97
2022-08-05T05:19:56.571Z,6.23
2022-08-05T05:22:26.958Z,6.03
2022-08-05T05:24:58.564Z,6.70
2022-08-05T05:27:44.433Z,6.90
2022-08-05T05:30:29.852Z,6.80
2022-08-05T05:33:08.901Z,6.17
2022-08-05T05:35:45.318Z,6.23
2022-08-05T05:38:22.152Z,6.87
2022-08-05T05:40:54.866Z,7.10
2022-08-05T05:43:56.872Z,7.10
2022-08-05T05:46:15.844Z,6.57
2022-08-05T05:48:44.704Z,7.10
2022-08-05T05:51:20.083Z,5.70
2022-08-05T05:53:57.806Z,7.07
2022-08-05T05:56:33.047Z,8.07
2022-08-05T05:59:05.484Z,6.80
2022-08-05T06:01:37.463Z,6.87
2022-08-05T06:04:07.091Z,6.60
2022-08-05T06:06:35.816Z,6.70
2022-08-05T06:09:07.658Z,7.00
2022-08-05T06:11:39.299Z,7.17
2022-08-05T06:14:07.514Z,6.50
2022-08-05T06:16:36.798Z,6.27
2022-08-05T06:19:07.492Z,6.77
2022-08-05T06:21:38.865Z,7.20
2022-08-05T06:24:12.871Z,6.70
2022-08-05T06:26:45.860Z,6.50
2022-08-05T06:29:45.360Z,6.13
2022-08-05T06:32:32.415Z,7.27
2022-08-05T06:35:05.761Z,7.10
2022-08-05T06:37:52.323Z,9.47
2022-08-05T06:40:28.025Z,9.03
2022-08-05T06:43:00.552Z,6.93
2022-08-05T06:45:44.884Z,7.07
2022-08-05T06:48:53.378Z,7.27
2022-08-05T06:51:09.668Z,6.93
2022-08-05T06:53:39.543Z,7.40
2022-08-05T06:56:16.302Z,6.90
2022-08-05T06:58:54.150Z,6.63
2022-08-05T07:01:22.656Z,6.87
2022-08-05T07:03:50.806Z,6.80
2022-08-05T07:06:20.734Z,10.70
2022-08-05T07:08:52.043Z,12.60
2022-08-05T07:11:25.418Z,9.03
2022-08-05T07:14:15.413Z,6.97
2022-08-05T07:17:59.256Z,7.23
2022-08-05T07:22:28.832Z,7.10
2022-08-05T07:25:22.561Z,6.77
2022-08-05T07:27:58.634Z,6.67
2022-08-05T07:30:33.349Z,6.80
2022-08-05T07:33:16.190Z,7.47
2022-08-05T07:36:02.940Z,6.10
2022-08-05T07:38:42.648Z,5.80
2022-08-05T07:42:09.594Z,5.53
2022-08-05T07:44:14.215Z,6.07
2022-08-05T07:46:48.536Z,7.37
2022-08-05T07:49:18.619Z,8.73
2022-08-05T07:51:52.904Z,9.90
2022-08-05T07:54:30.704Z,7.87
2022-08-05T07:57:22.718Z,6.13
2022-08-05T07:59:52.551Z,6.40
2022-08-05T08:02:26.819Z,5.43
2022-08-05T08:04:59.633Z,6.77
2022-08-05T08:07:28.975Z,6.37
2022-08-05T08:10:07.989Z,12.27
2022-08-05T08:12:49.411Z,7.50
2022-08-05T08:16:33.891Z,6.00
2022-08-05T08:18:13.855Z,6.17
2022-08-05T08:21:03.201Z,7.20
2022-08-05T08:24:01.279Z,6.47
2022-08-05T08:26:26.926Z,6.70
2022-08-05T08:29:21.980Z,6.60
2022-08-05T08:31:49.224Z,6.17
2022-08-05T08:34:18.711Z,8.00
2022-08-05T08:37:05.012Z,7.00
2022-08-05T08:39:37.549Z,6.63
2022-08-05T08:42:32.298Z,7.03
2022-08-05T08:45:21.244Z,6.00
2022-08-05T08:48:12.330Z,7.53
2022-08-05T08:51:03.665Z,5.93
2022-08-05T08:53:30.317Z,7.83
2022-08-05T08:56:04.459Z,7.30
2022-08-05T08:58:37.097Z,5.43
2022-08-05T09:01:16.294Z,6.73
2022-08-05T09:03:54.283Z,6.10
2022-08-05T09:06:28.079Z,6.17
2022-08-05T09:08:58.867Z,5.80
2022-08-05T09:11:50.910Z,5.50
2022-08-05T09:14:56.488Z,5.73
2022-08-05T09:17:04.992Z,6.00
2022-08-05T09:20:01.911Z,5.90
2022-08-05T09:22:31.759Z,5.80
2022-08-05T09:25:13.741Z,5.73
2022-08-05T09:28:03.758Z,5.70
2022-08-05T09:30:35.088Z,5.00
2022-08-05T09:33:05.803Z,5.63
2022-08-05T09:35:35.364Z,5.97
2022-08-05T09:38:11.948Z,6.87
2022-08-05T09:40:52.545Z,5.33
2022-08-05T09:43:40.883Z,6.07
2022-08-05T09:46:27.607Z,5.53
2022-08-05T09:49:08.272Z,5.50
2022-08-05T09:51:48.763Z,6.07
2022-08-05T09:54:28.900Z,7.03
2022-08-05T09:57:01.763Z,5.47
2022-08-05T09:59:35.208Z,5.87
2022-08-05T10:02:06.305Z,4.70
2022-08-05T10:04:41.008Z,5.60
2022-08-05T10:07:20.741Z,5.43
2022-08-05T10:10:04.300Z,4.93
2022-08-05T10:12:49.401Z,5.43
2022-08-05T10:15:21.907Z,5.60
2022-08-05T10:18:22.454Z,4.60
2022-08-05T10:20:53.481Z,4.87
2022-08-05T10:23:55.209Z,4.90
2022-08-05T10:26:51.686Z,5.23
2022-08-05T10:29:02.511Z,5.10
2022-08-05T10:32:54.432Z,5.40
2022-08-05T10:34:25.904Z,5.43
2022-08-05T10:36:58.328Z,5.50
2022-08-05T10:39:59.526Z,4.87
2022-08-05T10:42:34.375Z,4.67
2022-08-05T10:45:20.969Z,4.60
2022-08-05T10:48:29.848Z,5.40
2022-08-05T10:50:59.047Z,5.80
2022-08-05T10:53:45.583Z,5.60
2022-08-05T10:56:25.200Z,5.37
2022-08-05T11:00:03.710Z,4.80
2022-08-05T11:02:14.398Z,4.80
2022-08-05T11:05:00.246Z,5.00
2022-08-05T11:07:33.175Z,5.17
2022-08-05T11:10:27.455Z,5.13
2022-08-05T11:12:58.219Z,5.63
2022-08-05T11:16:00.874Z,4.43
2022-08-05T11:18:34.051Z,4.50
2022-08-05T11:21:11.438Z,4.83
2022-08-05T11:24:05.286Z,5.07
2022-08-05T11:26:34.903Z,5.43
2022-08-05T11:29:13.345Z,4.93
2022-08-05T11:31:57.639Z,5.47
2022-08-05T11:34:40.178Z,5.27
2022-08-05T11:38:30.298Z,5.20
2022-08-05T11:41:13.944Z,5.30
2022-08-05T11:44:06.729Z,5.10
2022-08-05T11:47:10.109Z,5.00
2022-08-05T11:49:28.758Z,5.17
2022-08-05T11:51:57.341Z,4.43
2022-08-05T11:54:33.419Z,5.47
2022-08-05T11:57:08.819Z,6.03
2022-08-05T11:59:52.854Z,5.53
2022-08-05T12:02:30.352Z,5.20
2022-08-05T12:05:07.438Z,4.97
2022-08-05T12:08:03.190Z,4.87
2022-08-05T12:10:43.771Z,5.13
2022-08-05T12:13:17.125Z,4.93
2022-08-05T12:15:49.729Z,4.60
2022-08-05T12:18:32.794Z,4.87
2022-08-05T12:21:11.263Z,5.00
2022-08-05T12:23:42.891Z,5.20
2022-08-05T12:26:11.768Z,5.60
2022-08-05T12:28:40.179Z,4.77
2022-08-05T12:31:09.762Z,5.13
2022-08-05T12:33:39.174Z,5.20
2022-08-05T12:36:11.639Z,5.53
2022-08-05T12:38:40.421Z,5.53
2022-08-05T12:41:12.939Z,4.90
2022-08-05T12:43:55.472Z,5.60
2022-08-05T12:46:29.793Z,4.90
2022-08-05T12:49:12.920Z,4.60
2022-08-05T12:52:12.081Z,4.73
2022-08-05T12:54:34.413Z,5.23
2022-08-05T12:57:03.982Z,5.20
2022-08-05T13:01:56.804Z,4.90
2022-08-05T13:02:39.809Z,5.30
2022-08-05T13:05:12.560Z,6.07
2022-08-05T13:08:01.281Z,5.60
2022-08-05T13:10:33.077Z,4.60
2022-08-05T13:13:02.766Z,5.30
2022-08-05T13:15:41.225Z,5.00
2022-08-05T13:18:19.636Z,4.37
2022-08-05T13:20:50.402Z,5.47
2022-08-05T13:23:22.658Z,4.67
2022-08-05T13:25:58.881Z,4.93
2022-08-05T13:28:27.803Z,4.90
2022-08-05T13:30:55.707Z,4.93
2022-08-05T13:34:24.652Z,5.30
2022-08-05T13:36:14.770Z,7.27
2022-08-05T13:38:43.307Z,4.80
2022-08-05T13:41:11.951Z,4.20
2022-08-05T13:43:44.822Z,4.40
2022-08-05T13:47:01.652Z,4.53
2022-08-05T13:49:12.046Z,4.93
2022-08-05T13:51:46.538Z,4.77
2022-08-05T13:54:15.979Z,5.17
2022-08-05T13:56:50.955Z,4.73
2022-08-05T13:59:24.905Z,4.40
2022-08-05T14:01:59.267Z,4.93
2022-08-05T14:04:49.472Z,15.90
2022-08-05T14:07:55.796Z,5.50
2022-08-05T14:10:12.079Z,5.50
2022-08-05T14:12:40.145Z,5.03
2022-08-05T14:16:06.193Z,4.30
2022-08-05T14:18:00.704Z,4.67
2022-08-05T14:20:29.933Z,4.60
2022-08-05T14:22:59.953Z,6.97
2022-08-05T14:25:30.251Z,4.63
2022-08-05T14:27:59.004Z,5.47
2022-08-05T14:30:27.825Z,5.73
2022-08-05T14:32:56.754Z,4.77
2022-08-05T14:35:37.039Z,4.57
2022-08-05T14:38:07.096Z,5.23
2022-08-05T14:40:55.185Z,4.60
2022-08-05T14:43:58.833Z,4.45
2022-08-05T14:46:18.043Z,4.43
2022-08-05T14:48:50.005Z,5.00
2022-08-05T14:51:18.224Z,5.57
2022-08-05T14:54:26.979Z,4.57
2022-08-05T14:56:44.371Z,4.20
2022-08-05T14:59:15.896Z,4.25
2022-08-05T15:01:48.115Z,5.25
2022-08-05T15:04:17.650Z,5.35
2022-08-05T15:06:49.664Z,5.80
2022-08-05T15:09:51.574Z,5.15
2022-08-05T15:12:11.402Z,5.55
2022-08-05T15:14:48.068Z,9.63
2022-08-05T15:17:46.468Z,11.02
2022-08-05T15:20:18.814Z,7.05
2022-08-05T15:22:54.052Z,6.00
2022-08-05T15:25:51.204Z,6.82
2022-08-05T15:28:14.650Z,5.85
2022-08-05T15:30:43.251Z,6.57
2022-08-05T15:33:11.811Z,5.80
2022-08-05T15:35:45.187Z,5.45
2022-08-05T15:38:35.581Z,5.90
2022-08-05T15:41:21.949Z,4.95
2022-08-05T15:43:51.663Z,5.60
2022-08-05T15:46:20.903Z,5.82
2022-08-05T15:49:00.950Z,4.13
2022-08-05T15:52:13.176Z,4.70
2022-08-05T15:54:29.487Z,4.10
2022-08-05T15:57:07.466Z,4.45
2022-08-05T15:59:36.454Z,5.93
2022-08-05T16:02:09.622Z,6.78
2022-08-05T16:04:43.282Z,8.48
2022-08-05T16:07:12.025Z,6.00
2022-08-05T16:09:42.077Z,6.25
2022-08-05T16:12:13.944Z,6.20
2022-08-05T16:14:43.490Z,6.03
2022-08-05T16:17:13.487Z,6.32
2022-08-05T16:20:04.584Z,11.25
2022-08-05T16:22:34.450Z,8.70
2022-08-05T16:25:08.163Z,6.32
2022-08-05T16:27:46.905Z,7.72
2022-08-05T16:30:29.050Z,6.65
2022-08-05T16:32:57.586Z,8.15
2022-08-05T16:35:28.592Z,8.85
2022-08-05T16:38:03.685Z,5.82
2022-08-05T16:40:51.916Z,6.75
2022-08-05T16:43:31.953Z,5.15
2022-08-05T16:46:23.846Z,5.88
2022-08-05T16:48:51.244Z,4.70
2022-08-05T16:51:19.212Z,5.68
2022-08-05T16:54:04.928Z,7.72
2022-08-05T16:56:41.619Z,9.88
2022-08-05T16:59:11.935Z,9.35
2022-08-05T17:01:53.206Z,6.45
2022-08-05T17:04:26.381Z,6.63
2022-08-05T17:07:00.088Z,6.43
2022-08-05T17:09:29.512Z,6.00
2022-08-05T17:11:59.166Z,5.95
2022-08-05T17:14:36.684Z,7.05
2022-08-05T17:17:14.523Z,9.57
2022-08-05T17:19:46.156Z,11.77
2022-08-05T17:22:24.782Z,8.20
2022-08-05T17:24:57.003Z,6.95
2022-08-05T17:27:27.274Z,6.97
2022-08-05T17:30:11.898Z,5.95
2022-08-05T17:32:42.180Z,7.88
2022-08-05T17:35:10.974Z,6.55
2022-08-05T17:37:45.225Z,8.30
2022-08-05T17:40:16.147Z,13.63
2022-08-05T17:42:50.638Z,7.57
2022-08-05T17:45:22.937Z,9.20
2022-08-05T17:47:54.982Z,13.33
2022-08-05T17:50:28.571Z,11.23
2022-08-05T17:53:00.047Z,12.20
2022-08-05T17:55:37.218Z,9.80
2022-08-05T17:58:09.385Z,8.20
2022-08-05T18:00:44.962Z,7.80
2022-08-05T18:03:27.984Z,7.80
2022-08-05T18:06:05.888Z,7.40
2022-08-05T18:08:44.151Z,8.00
2022-08-05T18:11:23.208Z,6.93
2022-08-05T18:13:53.969Z,6.80
2022-08-05T18:16:23.340Z,7.17
2022-08-05T18:18:53.169Z,8.17
2022-08-05T18:21:26.519Z,8.87
2022-08-05T18:23:57.197Z,7.97
2022-08-05T18:26:29.361Z,8.13
2022-08-05T18:29:01.385Z,6.73
2022-08-05T18:31:32.996Z,35.13
2022-08-05T18:34:03.893Z,25.70
2022-08-05T18:36:36.012Z,13.07
2022-08-05T18:39:06.672Z,6.97
2022-08-05T18:41:57.705Z,6.77
2022-08-05T18:44:34.798Z,7.03
2022-08-05T18:47:07.229Z,6.97
2022-08-05T18:49:58.227Z,6.70
2022-08-05T18:52:35.751Z,6.80
2022-08-05T18:55:10.301Z,7.57
2022-08-05T18:57:43.484Z,6.63
2022-08-05T19:01:58.513Z,6.30
2022-08-05T19:06:11.105Z,13.10
2022-08-05T19:08:18.796Z,10.60
2022-08-05T19:10:46.874Z,6.87
2022-08-05T19:13:15.886Z,7.00
2022-08-05T19:15:57.129Z,6.97
2022-08-05T19:18:28.823Z,9.23
2022-08-05T19:20:59.535Z,9.93
2022-08-05T19:24:06.653Z,7.50
2022-08-05T19:26:17.950Z,7.10
2022-08-05T19:28:46.910Z,6.43
2022-08-05T19:31:19.505Z,6.90
2022-08-05T19:33:56.366Z,8.03
2022-08-05T19:36:27.085Z,8.27
2022-08-05T19:39:00.950Z,9.13
2022-08-05T19:41:58.211Z,8.77
2022-08-05T19:44:18.682Z,8.73
2022-08-05T19:46:47.415Z,9.20
2022-08-05T19:49:18.343Z,8.97
2022-08-05T19:52:08.682Z,7.77
2022-08-05T19:54:37.042Z,6.80
2022-08-05T19:57:09.350Z,7.47
2022-08-05T20:00:00.590Z,8.90
2022-08-05T20:02:30.250Z,9.10
2022-08-05T20:05:00.118Z,10.23
2022-08-05T20:07:48.662Z,10.17
2022-08-05T20:10:19.391Z,8.90
2022-08-05T20:12:50.506Z,8.67
2022-08-05T20:15:23.454Z,8.63
2022-08-05T20:18:09.592Z,9.00
2022-08-05T20:20:39.600Z,8.50
2022-08-05T20:23:08.933Z,8.23
2022-08-05T20:25:40.629Z,7.57
2022-08-05T20:28:14.492Z,7.27
2022-08-05T20:30:43.189Z,8.03
2022-08-05T20:33:11.451Z,8.93
2022-08-05T20:35:45.718Z,8.93
2022-08-05T20:38:26.954Z,8.80
2022-08-05T20:40:56.488Z,6.97
2022-08-05T20:43:33.181Z,7.60
2022-08-05T20:46:18.551Z,7.10
2022-08-05T20:48:53.259Z,7.23
2022-08-05T20:51:22.824Z,7.73
2022-08-05T20:53:56.521Z,7.60
2022-08-05T20:56:28.745Z,7.10
2022-08-05T20:58:59.999Z,7.20
2022-08-05T21:01:39.252Z,7.70
2022-08-05T21:04:10.526Z,8.13
2022-08-05T21:06:45.351Z,9.70
2022-08-05T21:09:15.922Z,9.60
2022-08-05T21:12:09.615Z,9.53
2022-08-05T21:14:34.710Z,9.20
2022-08-05T21:17:05.435Z,8.57
2022-08-05T21:19:47.527Z,7.60
2022-08-05T21:22:21.810Z,8.23
2022-08-05T21:24:54.806Z,7.80
2022-08-05T21:27:25.498Z,7.50
2022-08-05T21:29:57.401Z,7.57
2022-08-05T21:32:27.171Z,7.40
2022-08-05T21:35:16.767Z,7.43
2022-08-05T21:37:47.431Z,8.57
2022-08-05T21:40:23.407Z,7.67
2022-08-05T21:42:52.903Z,7.60
2022-08-05T21:45:24.600Z,8.50
2022-08-05T21:47:56.478Z,8.57
2022-08-05T21:50:26.022Z,7.60
2022-08-05T21:52:58.728Z,8.00
2022-08-05T21:56:01.049Z,8.50
2022-08-05T21:58:25.030Z,7.80
2022-08-05T22:01:00.736Z,8.33
2022-08-05T22:03:48.299Z,8.03
2022-08-05T22:06:23.101Z,8.60
2022-08-05T22:09:13.997Z,8.60
2022-08-05T22:11:46.703Z,8.00
2022-08-05T22:14:35.502Z,7.40
2022-08-05T22:17:06.718Z,7.70
2022-08-05T22:20:02.074Z,8.50
2022-08-05T22:22:28.137Z,7.90
2022-08-05T22:25:18.262Z,7.73
2022-08-05T22:28:09.109Z,7.33
2022-08-05T22:30:56.169Z,6.60
2022-08-05T22:33:57.633Z,8.67
2022-08-05T22:36:15.418Z,8.40
2022-08-05T22:38:48.489Z,8.33
2022-08-05T22:41:26.395Z,8.40
2022-08-05T22:44:08.682Z,8.20
2022-08-05T22:46:39.620Z,8.77
2022-08-05T22:49:12.457Z,8.83
2022-08-05T22:52:05.453Z,8.57
2022-08-05T22:54:36.591Z,7.13
2022-08-05T22:57:05.095Z,8.17
2022-08-05T22:59:48.532Z,7.33
2022-08-05T23:02:28.789Z,7.53
2022-08-05T23:04:57.142Z,7.80
2022-08-05T23:07:25.046Z,9.77
2022-08-05T23:10:01.731Z,8.97
2022-08-05T23:12:32.700Z,7.67
2022-08-05T23:15:03.324Z,7.20
2022-08-05T23:17:32.856Z,7.90
2022-08-05T23:20:16.537Z,7.70
2022-08-05T23:22:47.713Z,7.73
2022-08-05T23:25:51.688Z,7.07
2022-08-05T23:28:08.009Z,7.83
2022-08-05T23:30:40.258Z,8.23
2022-08-05T23:33:21.851Z,11.60
2022-08-05T23:35:55.831Z,9.60
2022-08-05T23:38:25.969Z,9.20
2022-08-05T23:40:54.852Z,7.97
2022-08-05T23:43:25.572Z,9.00
2022-08-05T23:46:20.786Z,8.43
2022-08-05T23:49:00.699Z,8.13
2022-08-05T23:51:53.587Z,9.70
2022-08-05T23:54:25.820Z,8.67
2022-08-05T23:56:58.271Z,8.23
